sensor_id;sensor_type;location;lat;lon;timestamp;temperature;humidity
16627;DHT22;8427;52.204;7.202;2023-04-16T00:00:55;8.40;91.60
16627;DHT22;8427;52.204;7.202;2023-04-16T00:03:23;8.40;91.80
16627;DHT22;8427;52.204;7.202;2023-04-16T00:05:52;8.40;91.70
16627;DHT22;8427;52.204;7.202;2023-04-16T00:08:21;8.50;91.50
16627;DHT22;8427;52.204;7.202;2023-04-16T00:10:53;8.50;91.60
16627;DHT22;8427;52.204;7.202;2023-04-16T00:13:21;8.50;91.50
16627;DHT22;8427;52.204;7.202;2023-04-16T00:15:49;8.60;91.50
16627;DHT22;8427;52.204;7.202;2023-04-16T00:18:17;8.60;91.40
16627;DHT22;8427;52.204;7.202;2023-04-16T00:20:47;8.50;91.40
16627;DHT22;8427;52.204;7.202;2023-04-16T00:23:15;8.40;91.40
16627;DHT22;8427;52.204;7.202;2023-04-16T00:25:43;8.50;91.30
16627;DHT22;8427;52.204;7.202;2023-04-16T00:28:12;8.60;91.30
16627;DHT22;8427;52.204;7.202;2023-04-16T00:30:40;8.60;91.20
16627;DHT22;8427;52.204;7.202;2023-04-16T00:33:08;8.50;91.30
16627;DHT22;8427;52.204;7.202;2023-04-16T00:35:36;8.40;91.40
16627;DHT22;8427;52.204;7.202;2023-04-16T00:38:04;8.50;91.50
16627;DHT22;8427;52.204;7.202;2023-04-16T00:40:31;8.50;91.40
16627;DHT22;8427;52.204;7.202;2023-04-16T00:42:59;8.20;91.40
16627;DHT22;8427;52.204;7.202;2023-04-16T00:45:29;8.50;91.40
16627;DHT22;8427;52.204;7.202;2023-04-16T00:47:57;8.50;91.40
16627;DHT22;8427;52.204;7.202;2023-04-16T00:50:26;8.50;91.50
16627;DHT22;8427;52.204;7.202;2023-04-16T00:52:55;8.50;91.60
16627;DHT22;8427;52.204;7.202;2023-04-16T00:55:23;8.60;91.40
16627;DHT22;8427;52.204;7.202;2023-04-16T00:57:51;8.50;91.30
16627;DHT22;8427;52.204;7.202;2023-04-16T01:00:20;8.70;91.30
16627;DHT22;8427;52.204;7.202;2023-04-16T01:02:49;8.60;91.20
16627;DHT22;8427;52.204;7.202;2023-04-16T01:05:17;8.50;91.20
16627;DHT22;8427;52.204;7.202;2023-04-16T01:07:46;8.50;91.30
16627;DHT22;8427;52.204;7.202;2023-04-16T01:10:14;8.30;91.40
16627;DHT22;8427;52.204;7.202;2023-04-16T01:12:41;8.50;91.40
16627;DHT22;8427;52.204;7.202;2023-04-16T01:15:10;8.60;91.40
16627;DHT22;8427;52.204;7.202;2023-04-16T01:17:38;8.70;91.40
16627;DHT22;8427;52.204;7.202;2023-04-16T01:20:08;8.60;91.40
16627;DHT22;8427;52.204;7.202;2023-04-16T01:22:37;8.50;91.20
16627;DHT22;8427;52.204;7.202;2023-04-16T01:25:06;8.50;91.30
16627;DHT22;8427;52.204;7.202;2023-04-16T01:27:34;8.60;91.20
16627;DHT22;8427;52.204;7.202;2023-04-16T01:30:04;8.70;91.10
16627;DHT22;8427;52.204;7.202;2023-04-16T01:32:32;8.70;91.30
16627;DHT22;8427;52.204;7.202;2023-04-16T01:35:00;8.50;91.20
16627;DHT22;8427;52.204;7.202;2023-04-16T01:37:29;8.50;91.20
16627;DHT22;8427;52.204;7.202;2023-04-16T01:39:59;8.60;91.30
16627;DHT22;8427;52.204;7.202;2023-04-16T01:42:27;8.70;91.30
16627;DHT22;8427;52.204;7.202;2023-04-16T01:44:54;8.50;91.20
16627;DHT22;8427;52.204;7.202;2023-04-16T01:47:22;8.40;91.10
16627;DHT22;8427;52.204;7.202;2023-04-16T01:49:50;8.40;91.10
16627;DHT22;8427;52.204;7.202;2023-04-16T01:52:18;8.60;91.10
16627;DHT22;8427;52.204;7.202;2023-04-16T01:54:46;8.50;91.30
16627;DHT22;8427;52.204;7.202;2023-04-16T01:57:16;8.70;91.30
16627;DHT22;8427;52.204;7.202;2023-04-16T01:59:44;8.60;91.10
16627;DHT22;8427;52.204;7.202;2023-04-16T02:02:14;8.50;91.20
16627;DHT22;8427;52.204;7.202;2023-04-16T02:04:43;8.70;91.10
16627;DHT22;8427;52.204;7.202;2023-04-16T02:07:11;8.70;91.00
16627;DHT22;8427;52.204;7.202;2023-04-16T02:09:40;8.40;91.20
16627;DHT22;8427;52.204;7.202;2023-04-16T02:12:08;8.50;91.10
16627;DHT22;8427;52.204;7.202;2023-04-16T02:14:38;8.60;91.10
16627;DHT22;8427;52.204;7.202;2023-04-16T02:17:06;8.50;91.10
16627;DHT22;8427;52.204;7.202;2023-04-16T02:19:34;8.80;91.10
16627;DHT22;8427;52.204;7.202;2023-04-16T02:22:02;8.70;90.90
16627;DHT22;8427;52.204;7.202;2023-04-16T02:24:31;8.60;90.80
16627;DHT22;8427;52.204;7.202;2023-04-16T02:26:58;8.70;90.80
16627;DHT22;8427;52.204;7.202;2023-04-16T02:29:27;8.60;90.90
16627;DHT22;8427;52.204;7.202;2023-04-16T02:31:56;8.60;90.80
16627;DHT22;8427;52.204;7.202;2023-04-16T02:34:25;8.60;90.80
16627;DHT22;8427;52.204;7.202;2023-04-16T02:36:53;8.70;90.80
16627;DHT22;8427;52.204;7.202;2023-04-16T02:39:21;8.60;90.60
16627;DHT22;8427;52.204;7.202;2023-04-16T02:41:49;8.60;90.80
16627;DHT22;8427;52.204;7.202;2023-04-16T02:44:17;8.60;90.60
16627;DHT22;8427;52.204;7.202;2023-04-16T02:46:45;8.60;90.70
16627;DHT22;8427;52.204;7.202;2023-04-16T02:49:14;8.60;90.50
16627;DHT22;8427;52.204;7.202;2023-04-16T02:51:42;8.80;90.60
16627;DHT22;8427;52.204;7.202;2023-04-16T02:54:10;8.70;90.60
16627;DHT22;8427;52.204;7.202;2023-04-16T02:56:38;8.70;90.60
16627;DHT22;8427;52.204;7.202;2023-04-16T02:59:06;8.60;90.50
16627;DHT22;8427;52.204;7.202;2023-04-16T03:01:34;8.60;90.60
16627;DHT22;8427;52.204;7.202;2023-04-16T03:04:02;8.50;90.40
16627;DHT22;8427;52.204;7.202;2023-04-16T03:06:32;8.60;90.40
16627;DHT22;8427;52.204;7.202;2023-04-16T03:09:00;8.60;90.40
16627;DHT22;8427;52.204;7.202;2023-04-16T03:11:28;8.60;90.20
16627;DHT22;8427;52.204;7.202;2023-04-16T03:13:56;8.60;89.90
16627;DHT22;8427;52.204;7.202;2023-04-16T03:16:23;8.50;90.10
16627;DHT22;8427;52.204;7.202;2023-04-16T03:18:51;8.60;90.10
16627;DHT22;8427;52.204;7.202;2023-04-16T03:21:19;8.60;90.30
16627;DHT22;8427;52.204;7.202;2023-04-16T03:23:49;8.70;90.20
16627;DHT22;8427;52.204;7.202;2023-04-16T03:26:18;8.50;90.10
16627;DHT22;8427;52.204;7.202;2023-04-16T03:28:47;8.50;90.00
16627;DHT22;8427;52.204;7.202;2023-04-16T03:31:15;8.60;89.80
16627;DHT22;8427;52.204;7.202;2023-04-16T03:33:43;8.50;90.10
16627;DHT22;8427;52.204;7.202;2023-04-16T03:36:11;8.60;90.00
16627;DHT22;8427;52.204;7.202;2023-04-16T03:38:39;8.50;89.50
16627;DHT22;8427;52.204;7.202;2023-04-16T03:41:08;8.50;90.00
16627;DHT22;8427;52.204;7.202;2023-04-16T03:43:36;8.40;89.70
16627;DHT22;8427;52.204;7.202;2023-04-16T03:46:04;8.60;89.90
16627;DHT22;8427;52.204;7.202;2023-04-16T03:48:32;8.50;89.40
16627;DHT22;8427;52.204;7.202;2023-04-16T03:51:00;8.40;89.20
16627;DHT22;8427;52.204;7.202;2023-04-16T03:53:28;8.40;89.50
16627;DHT22;8427;52.204;7.202;2023-04-16T03:55:56;8.40;89.40
16627;DHT22;8427;52.204;7.202;2023-04-16T03:58:26;8.40;89.30
16627;DHT22;8427;52.204;7.202;2023-04-16T04:00:54;8.40;89.00
16627;DHT22;8427;52.204;7.202;2023-04-16T04:03:22;8.20;88.70
16627;DHT22;8427;52.204;7.202;2023-04-16T04:05:52;8.40;89.00
16627;DHT22;8427;52.204;7.202;2023-04-16T04:08:19;8.30;88.90
16627;DHT22;8427;52.204;7.202;2023-04-16T04:10:47;8.40;89.20
16627;DHT22;8427;52.204;7.202;2023-04-16T04:13:16;8.30;89.00
16627;DHT22;8427;52.204;7.202;2023-04-16T04:15:46;8.40;88.90
16627;DHT22;8427;52.204;7.202;2023-04-16T04:18:14;8.40;88.50
16627;DHT22;8427;52.204;7.202;2023-04-16T04:20:43;8.50;88.90
16627;DHT22;8427;52.204;7.202;2023-04-16T04:23:11;8.40;88.70
16627;DHT22;8427;52.204;7.202;2023-04-16T04:25:38;8.30;88.60
16627;DHT22;8427;52.204;7.202;2023-04-16T04:28:06;8.30;88.70
16627;DHT22;8427;52.204;7.202;2023-04-16T04:30:34;8.20;88.60
16627;DHT22;8427;52.204;7.202;2023-04-16T04:33:04;8.20;88.70
16627;DHT22;8427;52.204;7.202;2023-04-16T04:35:32;8.30;88.70
16627;DHT22;8427;52.204;7.202;2023-04-16T04:38:00;8.10;88.90
16627;DHT22;8427;52.204;7.202;2023-04-16T04:40:28;8.40;88.80
16627;DHT22;8427;52.204;7.202;2023-04-16T04:42:56;8.30;88.80
16627;DHT22;8427;52.204;7.202;2023-04-16T04:45:24;8.30;88.90
16627;DHT22;8427;52.204;7.202;2023-04-16T04:47:53;8.40;89.00
16627;DHT22;8427;52.204;7.202;2023-04-16T04:50:22;8.20;88.90
16627;DHT22;8427;52.204;7.202;2023-04-16T04:52:50;8.30;88.90
16627;DHT22;8427;52.204;7.202;2023-04-16T04:55:18;8.30;88.70
16627;DHT22;8427;52.204;7.202;2023-04-16T04:57:48;8.30;88.50
16627;DHT22;8427;52.204;7.202;2023-04-16T05:00:16;8.20;88.60
16627;DHT22;8427;52.204;7.202;2023-04-16T05:02:44;8.30;88.60
16627;DHT22;8427;52.204;7.202;2023-04-16T05:05:13;8.10;88.40
16627;DHT22;8427;52.204;7.202;2023-04-16T05:07:42;8.30;88.30
16627;DHT22;8427;52.204;7.202;2023-04-16T05:10:10;8.30;88.40
16627;DHT22;8427;52.204;7.202;2023-04-16T05:12:38;8.30;88.30
16627;DHT22;8427;52.204;7.202;2023-04-16T05:15:07;8.30;88.40
16627;DHT22;8427;52.204;7.202;2023-04-16T05:17:36;8.40;88.40
16627;DHT22;8427;52.204;7.202;2023-04-16T05:20:04;8.30;88.20
16627;DHT22;8427;52.204;7.202;2023-04-16T05:22:33;8.30;88.40
16627;DHT22;8427;52.204;7.202;2023-04-16T05:25:02;8.40;88.00
16627;DHT22;8427;52.204;7.202;2023-04-16T05:27:30;8.50;88.30
16627;DHT22;8427;52.204;7.202;2023-04-16T05:29:58;8.30;88.10
16627;DHT22;8427;52.204;7.202;2023-04-16T05:32:26;8.20;87.60
16627;DHT22;8427;52.204;7.202;2023-04-16T05:34:54;8.30;87.90
16627;DHT22;8427;52.204;7.202;2023-04-16T05:37:22;8.40;87.80
16627;DHT22;8427;52.204;7.202;2023-04-16T05:39:50;8.30;87.70
16627;DHT22;8427;52.204;7.202;2023-04-16T05:42:19;8.30;87.60
16627;DHT22;8427;52.204;7.202;2023-04-16T05:44:47;8.40;87.60
16627;DHT22;8427;52.204;7.202;2023-04-16T05:47:15;8.30;87.80
16627;DHT22;8427;52.204;7.202;2023-04-16T05:49:43;8.50;87.90
16627;DHT22;8427;52.204;7.202;2023-04-16T05:52:11;8.50;87.80
16627;DHT22;8427;52.204;7.202;2023-04-16T05:54:39;8.60;87.70
16627;DHT22;8427;52.204;7.202;2023-04-16T05:57:07;8.50;87.50
16627;DHT22;8427;52.204;7.202;2023-04-16T05:59:36;8.60;87.10
16627;DHT22;8427;52.204;7.202;2023-04-16T06:02:04;8.70;87.30
16627;DHT22;8427;52.204;7.202;2023-04-16T06:04:33;8.70;87.20
16627;DHT22;8427;52.204;7.202;2023-04-16T06:07:02;8.80;86.70
16627;DHT22;8427;52.204;7.202;2023-04-16T06:09:31;8.90;86.60
16627;DHT22;8427;52.204;7.202;2023-04-16T06:11:59;8.90;86.30
16627;DHT22;8427;52.204;7.202;2023-04-16T06:14:27;9.00;86.00
16627;DHT22;8427;52.204;7.202;2023-04-16T06:16:56;8.90;86.50
16627;DHT22;8427;52.204;7.202;2023-04-16T06:19:24;8.90;86.40
16627;DHT22;8427;52.204;7.202;2023-04-16T06:21:52;8.90;86.10
16627;DHT22;8427;52.204;7.202;2023-04-16T06:24:20;8.70;85.70
16627;DHT22;8427;52.204;7.202;2023-04-16T06:26:48;8.90;85.80
16627;DHT22;8427;52.204;7.202;2023-04-16T06:29:16;8.90;86.00
16627;DHT22;8427;52.204;7.202;2023-04-16T06:31:44;9.00;85.70
16627;DHT22;8427;52.204;7.202;2023-04-16T06:34:15;9.00;85.40
16627;DHT22;8427;52.204;7.202;2023-04-16T06:36:43;9.00;85.20
16627;DHT22;8427;52.204;7.202;2023-04-16T06:39:11;8.90;85.40
16627;DHT22;8427;52.204;7.202;2023-04-16T06:41:39;8.80;85.20
16627;DHT22;8427;52.204;7.202;2023-04-16T06:44:07;8.90;84.90
16627;DHT22;8427;52.204;7.202;2023-04-16T06:46:35;9.10;84.70
16627;DHT22;8427;52.204;7.202;2023-04-16T06:49:03;8.80;84.50
16627;DHT22;8427;52.204;7.202;2023-04-16T06:51:32;9.10;84.80
16627;DHT22;8427;52.204;7.202;2023-04-16T06:54:01;9.10;84.50
16627;DHT22;8427;52.204;7.202;2023-04-16T06:56:29;9.00;85.00
16627;DHT22;8427;52.204;7.202;2023-04-16T06:58:57;9.00;84.60
16627;DHT22;8427;52.204;7.202;2023-04-16T07:01:27;9.00;85.00
16627;DHT22;8427;52.204;7.202;2023-04-16T07:03:56;9.10;84.80
16627;DHT22;8427;52.204;7.202;2023-04-16T07:06:25;9.00;84.70
16627;DHT22;8427;52.204;7.202;2023-04-16T07:08:55;9.00;84.70
16627;DHT22;8427;52.204;7.202;2023-04-16T07:11:23;9.20;84.00
16627;DHT22;8427;52.204;7.202;2023-04-16T07:13:53;9.40;83.80
16627;DHT22;8427;52.204;7.202;2023-04-16T07:16:21;9.50;83.70
16627;DHT22;8427;52.204;7.202;2023-04-16T07:18:49;9.70;82.80
16627;DHT22;8427;52.204;7.202;2023-04-16T07:21:17;9.80;83.40
16627;DHT22;8427;52.204;7.202;2023-04-16T07:23:46;10.00;82.60
16627;DHT22;8427;52.204;7.202;2023-04-16T07:26:16;10.00;82.20
16627;DHT22;8427;52.204;7.202;2023-04-16T07:28:44;10.20;82.40
16627;DHT22;8427;52.204;7.202;2023-04-16T07:31:12;10.40;81.60
16627;DHT22;8427;52.204;7.202;2023-04-16T07:33:40;10.40;80.50
16627;DHT22;8427;52.204;7.202;2023-04-16T07:36:08;10.40;80.80
16627;DHT22;8427;52.204;7.202;2023-04-16T07:38:36;10.60;80.80
16627;DHT22;8427;52.204;7.202;2023-04-16T07:41:04;10.70;80.00
16627;DHT22;8427;52.204;7.202;2023-04-16T07:43:34;10.80;81.10
16627;DHT22;8427;52.204;7.202;2023-04-16T07:46:02;10.90;80.50
16627;DHT22;8427;52.204;7.202;2023-04-16T07:48:30;10.90;78.80
16627;DHT22;8427;52.204;7.202;2023-04-16T07:50:58;11.00;79.80
16627;DHT22;8427;52.204;7.202;2023-04-16T07:53:26;10.90;78.80
16627;DHT22;8427;52.204;7.202;2023-04-16T07:55:54;11.00;79.30
16627;DHT22;8427;52.204;7.202;2023-04-16T07:58:22;10.90;79.30
16627;DHT22;8427;52.204;7.202;2023-04-16T08:00:51;11.10;79.60
16627;DHT22;8427;52.204;7.202;2023-04-16T08:03:19;11.10;78.80
16627;DHT22;8427;52.204;7.202;2023-04-16T08:05:48;11.30;79.20
16627;DHT22;8427;52.204;7.202;2023-04-16T08:08:16;11.30;78.90
16627;DHT22;8427;52.204;7.202;2023-04-16T08:10:44;11.40;78.80
16627;DHT22;8427;52.204;7.202;2023-04-16T08:13:12;11.40;77.90
16627;DHT22;8427;52.204;7.202;2023-04-16T08:15:40;11.60;77.50
16627;DHT22;8427;52.204;7.202;2023-04-16T08:18:09;11.70;77.40
16627;DHT22;8427;52.204;7.202;2023-04-16T08:20:41;11.70;76.20
16627;DHT22;8427;52.204;7.202;2023-04-16T08:23:09;11.80;77.10
16627;DHT22;8427;52.204;7.202;2023-04-16T08:25:37;11.80;77.20
16627;DHT22;8427;52.204;7.202;2023-04-16T08:28:05;11.90;76.80
16627;DHT22;8427;52.204;7.202;2023-04-16T08:30:33;11.90;76.10
16627;DHT22;8427;52.204;7.202;2023-04-16T08:33:01;12.00;76.70
16627;DHT22;8427;52.204;7.202;2023-04-16T08:35:30;11.80;76.80
16627;DHT22;8427;52.204;7.202;2023-04-16T08:37:58;11.80;76.70
16627;DHT22;8427;52.204;7.202;2023-04-16T08:40:28;11.70;78.00
16627;DHT22;8427;52.204;7.202;2023-04-16T08:42:58;11.70;77.70
16627;DHT22;8427;52.204;7.202;2023-04-16T08:45:27;11.60;78.00
16627;DHT22;8427;52.204;7.202;2023-04-16T08:47:54;11.70;77.80
16627;DHT22;8427;52.204;7.202;2023-04-16T08:50:24;12.00;77.80
16627;DHT22;8427;52.204;7.202;2023-04-16T08:52:58;12.00;76.50
16627;DHT22;8427;52.204;7.202;2023-04-16T08:55:33;12.30;75.80
16627;DHT22;8427;52.204;7.202;2023-04-16T08:58:07;12.30;74.70
16627;DHT22;8427;52.204;7.202;2023-04-16T09:00:36;12.60;74.30
16627;DHT22;8427;52.204;7.202;2023-04-16T09:03:07;13.10;74.30
16627;DHT22;8427;52.204;7.202;2023-04-16T09:05:36;13.20;70.30
16627;DHT22;8427;52.204;7.202;2023-04-16T09:08:06;13.10;72.30
16627;DHT22;8427;52.204;7.202;2023-04-16T09:10:34;13.40;71.60
16627;DHT22;8427;52.204;7.202;2023-04-16T09:13:02;13.60;68.90
16627;DHT22;8427;52.204;7.202;2023-04-16T09:15:31;13.80;69.50
16627;DHT22;8427;52.204;7.202;2023-04-16T09:18:00;14.00;68.90
16627;DHT22;8427;52.204;7.202;2023-04-16T09:20:29;14.20;67.90
16627;DHT22;8427;52.204;7.202;2023-04-16T09:22:57;14.30;68.90
16627;DHT22;8427;52.204;7.202;2023-04-16T09:25:26;14.10;67.20
16627;DHT22;8427;52.204;7.202;2023-04-16T09:27:54;14.10;68.00
16627;DHT22;8427;52.204;7.202;2023-04-16T09:30:24;14.30;66.70
16627;DHT22;8427;52.204;7.202;2023-04-16T09:33:11;14.50;66.90
16627;DHT22;8427;52.204;7.202;2023-04-16T09:35:45;14.40;65.70
16627;DHT22;8427;52.204;7.202;2023-04-16T09:38:13;14.50;66.90
16627;DHT22;8427;52.204;7.202;2023-04-16T09:40:43;14.60;65.60
16627;DHT22;8427;52.204;7.202;2023-04-16T09:43:14;14.80;66.10
16627;DHT22;8427;52.204;7.202;2023-04-16T09:45:49;15.00;65.10
16627;DHT22;8427;52.204;7.202;2023-04-16T09:48:27;14.90;64.90
16627;DHT22;8427;52.204;7.202;2023-04-16T09:50:56;15.00;63.70
16627;DHT22;8427;52.204;7.202;2023-04-16T09:53:24;14.90;63.00
16627;DHT22;8427;52.204;7.202;2023-04-16T09:55:55;15.00;62.70
16627;DHT22;8427;52.204;7.202;2023-04-16T09:58:23;14.70;64.20
16627;DHT22;8427;52.204;7.202;2023-04-16T10:00:55;14.50;63.50
16627;DHT22;8427;52.204;7.202;2023-04-16T10:03:30;14.40;64.40
16627;DHT22;8427;52.204;7.202;2023-04-16T10:05:59;14.50;64.30
16627;DHT22;8427;52.204;7.202;2023-04-16T10:16:58;15.10;61.70
16627;DHT22;8427;52.204;7.202;2023-04-16T10:19:26;15.10;61.20
16627;DHT22;8427;52.204;7.202;2023-04-16T10:21:54;15.30;62.50
16627;DHT22;8427;52.204;7.202;2023-04-16T10:24:22;15.20;61.50
16627;DHT22;8427;52.204;7.202;2023-04-16T10:26:51;15.20;61.10
16627;DHT22;8427;52.204;7.202;2023-04-16T10:29:20;15.30;61.40
16627;DHT22;8427;52.204;7.202;2023-04-16T10:31:49;15.20;61.10
16627;DHT22;8427;52.204;7.202;2023-04-16T10:34:19;15.40;60.90
16627;DHT22;8427;52.204;7.202;2023-04-16T10:36:48;15.50;60.80
16627;DHT22;8427;52.204;7.202;2023-04-16T10:39:17;15.70;60.40
16627;DHT22;8427;52.204;7.202;2023-04-16T10:41:46;15.80;58.70
16627;DHT22;8427;52.204;7.202;2023-04-16T10:44:16;15.70;59.50
16627;DHT22;8427;52.204;7.202;2023-04-16T10:46:46;15.70;59.40
16627;DHT22;8427;52.204;7.202;2023-04-16T10:49:17;15.80;59.00
16627;DHT22;8427;52.204;7.202;2023-04-16T10:51:53;15.80;59.90
16627;DHT22;8427;52.204;7.202;2023-04-16T10:54:26;15.80;59.30
16627;DHT22;8427;52.204;7.202;2023-04-16T10:56:56;15.80;58.80
16627;DHT22;8427;52.204;7.202;2023-04-16T10:59:29;15.60;60.80
16627;DHT22;8427;52.204;7.202;2023-04-16T11:01:58;15.60;59.60
16627;DHT22;8427;52.204;7.202;2023-04-16T11:04:37;15.60;60.50
16627;DHT22;8427;52.204;7.202;2023-04-16T11:07:14;15.60;60.00
16627;DHT22;8427;52.204;7.202;2023-04-16T11:09:54;15.70;59.90
16627;DHT22;8427;52.204;7.202;2023-04-16T11:12:23;15.70;58.70
16627;DHT22;8427;52.204;7.202;2023-04-16T11:14:56;15.90;59.80
16627;DHT22;8427;52.204;7.202;2023-04-16T11:17:28;16.00;57.90
16627;DHT22;8427;52.204;7.202;2023-04-16T11:19:56;15.90;57.70
16627;DHT22;8427;52.204;7.202;2023-04-16T11:22:26;15.50;60.00
16627;DHT22;8427;52.204;7.202;2023-04-16T11:24:55;15.60;59.40
16627;DHT22;8427;52.204;7.202;2023-04-16T11:27:23;15.80;59.60
16627;DHT22;8427;52.204;7.202;2023-04-16T11:29:59;15.70;60.10
16627;DHT22;8427;52.204;7.202;2023-04-16T11:32:30;15.50;61.20
16627;DHT22;8427;52.204;7.202;2023-04-16T11:34:59;15.30;60.50
16627;DHT22;8427;52.204;7.202;2023-04-16T11:37:35;15.10;62.60
16627;DHT22;8427;52.204;7.202;2023-04-16T11:40:04;15.20;60.80
16627;DHT22;8427;52.204;7.202;2023-04-16T11:42:33;15.30;61.70
16627;DHT22;8427;52.204;7.202;2023-04-16T11:45:04;15.40;61.80
16627;DHT22;8427;52.204;7.202;2023-04-16T11:47:41;15.60;61.50
16627;DHT22;8427;52.204;7.202;2023-04-16T11:50:20;15.50;60.90
16627;DHT22;8427;52.204;7.202;2023-04-16T12:22:17;15.50;60.20
16627;DHT22;8427;52.204;7.202;2023-04-16T12:24:55;15.60;60.80
16627;DHT22;8427;52.204;7.202;2023-04-16T12:27:23;15.30;61.50
16627;DHT22;8427;52.204;7.202;2023-04-16T12:30:04;15.30;61.10
16627;DHT22;8427;52.204;7.202;2023-04-16T12:32:32;15.40;62.00
16627;DHT22;8427;52.204;7.202;2023-04-16T12:35:00;15.40;61.00
16627;DHT22;8427;52.204;7.202;2023-04-16T12:37:29;15.50;61.80
16627;DHT22;8427;52.204;7.202;2023-04-16T12:39:58;15.70;61.50
16627;DHT22;8427;52.204;7.202;2023-04-16T12:42:26;15.80;61.40
16627;DHT22;8427;52.204;7.202;2023-04-16T12:44:59;15.80;62.30
16627;DHT22;8427;52.204;7.202;2023-04-16T12:47:26;15.80;60.10
16627;DHT22;8427;52.204;7.202;2023-04-16T12:49:55;15.60;60.80
16627;DHT22;8427;52.204;7.202;2023-04-16T12:52:23;15.60;60.40
16627;DHT22;8427;52.204;7.202;2023-04-16T12:54:52;15.50;61.40
16627;DHT22;8427;52.204;7.202;2023-04-16T12:57:20;15.60;60.50
16627;DHT22;8427;52.204;7.202;2023-04-16T12:59:54;15.50;61.50
16627;DHT22;8427;52.204;7.202;2023-04-16T13:02:23;15.40;61.30
16627;DHT22;8427;52.204;7.202;2023-04-16T13:04:52;15.50;61.80
16627;DHT22;8427;52.204;7.202;2023-04-16T13:07:20;15.20;61.50
16627;DHT22;8427;52.204;7.202;2023-04-16T13:09:49;15.40;61.90
16627;DHT22;8427;52.204;7.202;2023-04-16T13:12:19;15.30;61.90
16627;DHT22;8427;52.204;7.202;2023-04-16T13:14:46;15.40;62.40
16627;DHT22;8427;52.204;7.202;2023-04-16T13:17:14;15.50;61.60
16627;DHT22;8427;52.204;7.202;2023-04-16T13:19:42;15.70;60.70
16627;DHT22;8427;52.204;7.202;2023-04-16T13:22:11;15.70;60.20
16627;DHT22;8427;52.204;7.202;2023-04-16T13:24:39;15.70;61.80
16627;DHT22;8427;52.204;7.202;2023-04-16T13:27:08;15.80;60.60
16627;DHT22;8427;52.204;7.202;2023-04-16T13:29:38;15.90;59.20
16627;DHT22;8427;52.204;7.202;2023-04-16T13:32:06;15.90;60.90
16627;DHT22;8427;52.204;7.202;2023-04-16T13:34:34;15.90;61.00
16627;DHT22;8427;52.204;7.202;2023-04-16T13:37:02;15.80;61.20
16627;DHT22;8427;52.204;7.202;2023-04-16T13:39:30;15.90;60.00
16627;DHT22;8427;52.204;7.202;2023-04-16T13:41:58;15.90;59.90
16627;DHT22;8427;52.204;7.202;2023-04-16T13:44:26;15.90;59.00
16627;DHT22;8427;52.204;7.202;2023-04-16T13:46:55;16.10;59.90
16627;DHT22;8427;52.204;7.202;2023-04-16T13:49:23;16.10;59.10
16627;DHT22;8427;52.204;7.202;2023-04-16T13:51:51;16.20;59.20
16627;DHT22;8427;52.204;7.202;2023-04-16T13:54:19;16.20;59.00
16627;DHT22;8427;52.204;7.202;2023-04-16T13:56:48;16.20;59.10
16627;DHT22;8427;52.204;7.202;2023-04-16T13:59:16;16.20;59.80
16627;DHT22;8427;52.204;7.202;2023-04-16T14:01:45;16.00;58.20
16627;DHT22;8427;52.204;7.202;2023-04-16T14:04:15;15.90;58.90
16627;DHT22;8427;52.204;7.202;2023-04-16T14:06:43;15.80;58.20
16627;DHT22;8427;52.204;7.202;2023-04-16T14:09:11;15.90;60.00
16627;DHT22;8427;52.204;7.202;2023-04-16T14:11:39;15.90;58.80
16627;DHT22;8427;52.204;7.202;2023-04-16T14:14:07;15.60;57.70
16627;DHT22;8427;52.204;7.202;2023-04-16T14:16:34;15.60;58.70
16627;DHT22;8427;52.204;7.202;2023-04-16T14:19:02;15.50;58.90
16627;DHT22;8427;52.204;7.202;2023-04-16T14:21:32;15.50;61.00
16627;DHT22;8427;52.204;7.202;2023-04-16T14:24:00;15.50;59.60
16627;DHT22;8427;52.204;7.202;2023-04-16T14:26:28;15.60;61.00
16627;DHT22;8427;52.204;7.202;2023-04-16T14:31:26;15.90;57.70
16627;DHT22;8427;52.204;7.202;2023-04-16T14:33:54;16.00;58.00
16627;DHT22;8427;52.204;7.202;2023-04-16T14:36:22;16.30;56.10
16627;DHT22;8427;52.204;7.202;2023-04-16T14:38:51;16.30;57.90
16627;DHT22;8427;52.204;7.202;2023-04-16T14:41:19;16.40;57.00
16627;DHT22;8427;52.204;7.202;2023-04-16T14:43:47;16.50;57.40
16627;DHT22;8427;52.204;7.202;2023-04-16T14:46:15;16.50;57.10
16627;DHT22;8427;52.204;7.202;2023-04-16T14:48:44;16.60;57.10
16627;DHT22;8427;52.204;7.202;2023-04-16T14:51:12;16.50;57.40
16627;DHT22;8427;52.204;7.202;2023-04-16T14:53:39;16.60;56.50
16627;DHT22;8427;52.204;7.202;2023-04-16T14:56:09;16.60;57.10
16627;DHT22;8427;52.204;7.202;2023-04-16T14:58:38;16.80;56.40
16627;DHT22;8427;52.204;7.202;2023-04-16T15:01:08;16.70;55.90
16627;DHT22;8427;52.204;7.202;2023-04-16T15:03:36;16.90;55.60
16627;DHT22;8427;52.204;7.202;2023-04-16T15:06:04;16.80;55.50
16627;DHT22;8427;52.204;7.202;2023-04-16T15:08:33;16.80;55.60
16627;DHT22;8427;52.204;7.202;2023-04-16T15:11:01;16.70;54.70
16627;DHT22;8427;52.204;7.202;2023-04-16T15:13:30;16.60;56.00
16627;DHT22;8427;52.204;7.202;2023-04-16T15:16:00;16.60;57.30
16627;DHT22;8427;52.204;7.202;2023-04-16T15:18:28;16.60;55.80
16627;DHT22;8427;52.204;7.202;2023-04-16T15:20:56;16.50;58.10
16627;DHT22;8427;52.204;7.202;2023-04-16T15:23:24;16.50;58.20
16627;DHT22;8427;52.204;7.202;2023-04-16T15:25:52;16.60;57.00
16627;DHT22;8427;52.204;7.202;2023-04-16T15:28:23;16.60;57.70
16627;DHT22;8427;52.204;7.202;2023-04-16T15:30:53;16.50;56.90
16627;DHT22;8427;52.204;7.202;2023-04-16T15:33:23;16.50;58.20
16627;DHT22;8427;52.204;7.202;2023-04-16T15:35:52;16.60;58.90
16627;DHT22;8427;52.204;7.202;2023-04-16T15:38:20;16.40;57.30
16627;DHT22;8427;52.204;7.202;2023-04-16T15:40:48;16.30;57.60
16627;DHT22;8427;52.204;7.202;2023-04-16T15:43:19;16.20;57.10
16627;DHT22;8427;52.204;7.202;2023-04-16T15:45:48;16.20;57.20
16627;DHT22;8427;52.204;7.202;2023-04-16T15:48:18;16.00;58.70
16627;DHT22;8427;52.204;7.202;2023-04-16T15:50:47;15.90;59.20
16627;DHT22;8427;52.204;7.202;2023-04-16T15:53:15;15.80;59.30
16627;DHT22;8427;52.204;7.202;2023-04-16T15:55:43;15.70;60.20
16627;DHT22;8427;52.204;7.202;2023-04-16T15:58:12;15.50;61.00
16627;DHT22;8427;52.204;7.202;2023-04-16T16:00:40;15.40;61.40
16627;DHT22;8427;52.204;7.202;2023-04-16T16:03:08;15.30;61.30
16627;DHT22;8427;52.204;7.202;2023-04-16T16:05:38;15.20;60.70
16627;DHT22;8427;52.204;7.202;2023-04-16T16:08:07;15.30;61.70
16627;DHT22;8427;52.204;7.202;2023-04-16T16:10:35;15.40;61.70
16627;DHT22;8427;52.204;7.202;2023-04-16T16:13:03;15.30;62.20
16627;DHT22;8427;52.204;7.202;2023-04-16T16:15:33;15.50;62.20
16627;DHT22;8427;52.204;7.202;2023-04-16T16:18:01;15.50;60.40
16627;DHT22;8427;52.204;7.202;2023-04-16T16:20:29;15.50;61.60
16627;DHT22;8427;52.204;7.202;2023-04-16T16:22:58;15.50;61.00
16627;DHT22;8427;52.204;7.202;2023-04-16T16:25:26;15.30;59.90
16627;DHT22;8427;52.204;7.202;2023-04-16T16:27:55;15.20;61.70
16627;DHT22;8427;52.204;7.202;2023-04-16T16:30:24;15.20;61.60
16627;DHT22;8427;52.204;7.202;2023-04-16T16:32:52;15.20;62.30
16627;DHT22;8427;52.204;7.202;2023-04-16T16:45:57;14.70;62.70
16627;DHT22;8427;52.204;7.202;2023-04-16T16:48:25;14.70;61.30
16627;DHT22;8427;52.204;7.202;2023-04-16T16:50:53;14.60;62.50
16627;DHT22;8427;52.204;7.202;2023-04-16T16:53:21;14.50;64.40